Alden, Michigan
Current Conditions -  °F | °C
As of 7:55 PM on Monday 26 Jan 2015 (Local Time) from KACB Reporting Station
Clear Clear  
Wind Chill: 19°   Ceiling: Unl
Heat Index: 19°   Visibility: 10mi
Dew Point:   Wind: 0mph
Humidity: 63%   Direction: NA
Pressure: 29.98"   Gusts: NA
Location:  44.88°N, 85.28°W
Report Text: KACB 270055Z AUTO 00000KT 10SM CLR M07/M13 A2998 RMK AO2 T10751135
Loading
Personal Weather Stations






























Interactive Weather Map New forecast layout! Learn more

10-Day Weather Forecast

Advertisements
Track Severe Weather on mobile